Time;durP1;ratioP1;P1;durP2;ratioP2;P2;SDS_P1;SDS_P2;PMS_P1;PMS_P2;Temp;Humidity;BMP_temperature;BMP_pressure;BME280_temperature;BME280_humidity;BME280_pressure;Samples;Min_cycle;Max_cycle;Signal;HPM_P1;HPM_P2
2022/08/03 00:00:25;;;;;;;;;;;18.00;99.90;;;;;;5056173;28;20052;-58
2022/08/03 00:02:52;;;;;;;4.87;3.37;;;18.00;99.90;;;;;;5055834;28;19931;-58
2022/08/03 00:05:19;;;;;;;5.50;3.50;;;18.00;99.90;;;;;;5067277;28;20032;-58
2022/08/03 00:07:46;;;;;;;6.40;3.67;;;18.00;99.90;;;;;;5074986;28;20594;-57
2022/08/03 00:10:15;;;;;;;4.88;2.90;;;17.90;99.90;;;;;;5058463;28;20052;-57
2022/08/03 00:12:42;;;;;;;4.55;3.13;;;17.90;99.90;;;;;;5056829;28;20085;-58
2022/08/03 00:15:10;;;;;;;5.22;3.03;;;17.90;99.90;;;;;;5056794;28;20630;-59
2022/08/03 00:17:43;;;;;;;4.75;3.28;;;17.90;99.90;;;;;;5054555;28;20048;-57
2022/08/03 00:20:22;;;;;;;;;;;17.90;99.90;;;;;;5056522;28;20071;-58
2022/08/03 00:22:49;;;;;;;3.85;3.38;;;17.90;99.90;;;;;;5055537;28;19929;-58
2022/08/03 00:25:16;;;;;;;3.53;2.92;;;17.90;99.90;;;;;;5055828;28;20048;-58
2022/08/03 00:27:43;;;;;;;6.25;3.63;;;17.90;99.90;;;;;;5055867;28;20645;-57
2022/08/03 00:30:10;;;;;;;5.97;3.17;;;17.90;99.90;;;;;;5055806;28;20048;-58
2022/08/03 00:32:37;;;;;;;3.97;3.38;;;17.80;99.90;;;;;;5038070;28;20098;-58
2022/08/03 00:35:11;;;;;;;3.65;3.05;;;17.80;99.90;;;;;;5056278;28;20563;-58
2022/08/03 00:37:58;;;;;;;4.07;3.65;;;17.80;99.90;;;;;;5055729;28;20048;-59
2022/08/03 00:40:25;;;;;;;5.45;3.35;;;17.70;99.90;;;;;;5055131;28;20118;-58
2022/08/03 00:42:57;;;;;;;4.40;3.10;;;17.70;99.90;;;;;;5055185;28;20318;-58
2022/08/03 00:45:38;;;;;;;6.45;2.85;;;17.70;99.90;;;;;;5055080;28;20922;-58
2022/08/03 00:48:07;;;;;;;4.53;3.20;;;17.60;99.90;;;;;;5055004;28;20862;-57
2022/08/03 00:50:54;;;;;;;8.32;2.97;;;17.60;99.90;;;;;;5054480;28;20048;-58
2022/08/03 00:53:21;;;;;;;4.47;3.00;;;17.60;99.90;;;;;;5060204;28;20638;-58
2022/08/03 00:55:48;;;;;;;3.78;3.10;;;17.60;99.90;;;;;;5075550;28;20422;-58
2022/08/03 00:58:15;;;;;;;5.40;3.58;;;17.50;99.90;;;;;;5075954;28;20110;-58
2022/08/03 01:00:42;;;;;;;5.22;3.53;;;17.50;99.90;;;;;;5075319;28;20040;-58
2022/08/03 01:03:09;;;;;;;4.50;3.10;;;17.50;99.90;;;;;;5074843;28;20108;-57
2022/08/03 01:06:03;;;;;;;4.35;2.88;;;17.40;99.90;;;;;;5074396;28;20040;-58
2022/08/03 01:08:49;;;;;;;9.65;3.38;;;17.30;99.90;;;;;;5073199;28;20051;-57
2022/08/03 01:11:26;;;;;;;5.70;2.60;;;17.30;99.90;;;;;;5038003;28;20451;-58
2022/08/03 01:14:09;;;;;;;5.47;3.17;;;17.20;99.90;;;;;;5053152;28;20035;-59
2022/08/03 01:17:10;;;;;;;6.13;3.30;;;17.20;99.90;;;;;;5053962;28;20265;-57
2022/08/03 01:19:41;;;;;;;3.05;2.75;;;17.10;99.90;;;;;;5054659;28;20044;-58
2022/08/03 01:22:28;;;;;;;3.40;3.10;;;17.10;99.90;;;;;;5055172;28;20037;-58
2022/08/03 01:25:23;;;;;;;3.47;3.17;;;17.10;99.90;;;;;;5053888;28;20056;-57
2022/08/03 01:28:14;;;;;;;4.15;3.60;;;17.10;99.90;;;;;;5055002;28;20644;-58
2022/08/03 01:30:44;;;;;;;4.10;2.90;;;17.10;99.90;;;;;;5054417;28;20044;-58
2022/08/03 01:33:22;;;;;;;4.85;3.55;;;17.10;99.90;;;;;;5054916;28;20118;-57
2022/08/03 01:35:58;;;;;;;3.30;3.00;;;17.10;99.90;;;;;;5054403;28;20066;-58
2022/08/03 01:38:32;;;;;;;3.55;3.22;;;17.10;99.90;;;;;;5054245;28;20897;-58
2022/08/03 01:41:07;;;;;;;5.03;3.58;;;17.10;99.90;;;;;;5054168;28;20098;-58
2022/08/03 01:43:35;;;;;;;3.70;3.05;;;17.00;99.90;;;;;;5054290;28;20045;-58
2022/08/03 01:46:24;;;;;;;4.50;3.65;;;17.00;99.90;;;;;;5054121;28;20126;-58
2022/08/03 01:48:52;;;;;;;5.43;3.25;;;17.00;99.90;;;;;;5054663;28;20044;-58
2022/08/03 01:51:21;;;;;;;3.53;2.90;;;17.00;99.90;;;;;;5054336;28;20106;-58
2022/08/03 01:53:50;;;;;;;5.43;3.13;;;17.00;99.90;;;;;;5061015;28;20603;-56
2022/08/03 01:56:21;;;;;;;3.08;2.78;;;16.90;99.90;;;;;;5054291;28;20577;-58
2022/08/03 01:58:49;;;;;;;3.53;3.20;;;16.90;99.90;;;;;;5053861;28;20044;-58
2022/08/03 02:01:18;;;;;;;4.82;2.97;;;16.90;99.90;;;;;;5054672;28;20129;-58
2022/08/03 02:03:46;;;;;;;3.42;3.13;;;16.90;99.90;;;;;;5053797;28;20132;-58
2022/08/03 02:06:29;;;;;;;4.07;3.17;;;16.90;99.90;;;;;;5059082;28;20127;-58
2022/08/03 02:09:19;;;;;;;8.10;3.88;;;16.90;99.90;;;;;;5070710;28;20079;-57
2022/08/03 02:11:47;;;;;;;3.25;2.80;;;16.80;99.90;;;;;;5067014;28;20055;-58
2022/08/03 02:14:14;;;;;;;4.72;3.25;;;16.80;99.90;;;;;;5052715;28;20090;-58
2022/08/03 02:16:43;;;;;;;4.78;3.70;;;16.80;99.90;;;;;;5054551;28;20037;-58
2022/08/03 02:19:10;;;;;;;5.00;3.00;;;16.80;99.90;;;;;;5054236;28;20493;-59
2022/08/03 02:21:38;;;;;;;3.58;3.28;;;16.70;99.90;;;;;;5053567;28;20053;-57
2022/08/03 02:24:25;;;;;;;;;;;16.70;99.90;;;;;;5054318;28;20052;-58
2022/08/03 02:26:54;;;;;;;4.10;3.25;;;16.70;99.90;;;;;;5053571;28;19928;-58
2022/08/03 02:29:24;;;;;;;3.75;3.20;;;16.70;99.90;;;;;;5052660;28;20044;-58
2022/08/03 02:32:12;;;;;;;5.70;3.75;;;16.70;99.90;;;;;;5052128;28;20048;-58
2022/08/03 02:34:42;;;;;;;7.20;3.53;;;16.70;99.90;;;;;;5053908;28;20072;-59
2022/08/03 02:37:10;;;;;;;2.80;2.55;;;16.60;99.90;;;;;;5053745;28;20129;-58
2022/08/03 02:39:40;;;;;;;3.97;3.03;;;16.60;99.90;;;;;;5054314;28;20113;-57
2022/08/03 02:42:10;;;;;;;3.25;2.92;;;16.60;99.90;;;;;;5053569;28;20201;-58
2022/08/03 02:44:42;;;;;;;3.38;3.08;;;16.60;99.90;;;;;;5053819;28;20106;-57
2022/08/03 02:47:11;;;;;;;4.80;3.45;;;16.60;99.90;;;;;;5054402;28;20033;-57
2022/08/03 02:49:40;;;;;;;3.45;2.97;;;16.60;99.90;;;;;;5053578;28;20139;-58
2022/08/03 02:52:24;;;;;;;4.03;3.15;;;16.60;99.90;;;;;;5055917;28;20059;-58
2022/08/03 02:54:55;;;;;;;3.88;3.40;;;16.60;99.90;;;;;;5056430;28;20049;-57
2022/08/03 02:57:23;;;;;;;6.30;3.20;;;16.50;99.90;;;;;;5054101;28;20105;-58
2022/08/03 02:59:52;;;;;;;7.72;3.10;;;16.60;99.90;;;;;;5052838;28;20059;-57
2022/08/03 03:02:19;;;;;;;4.25;3.20;;;16.60;99.90;;;;;;5071864;28;20044;-57
2022/08/03 03:04:50;;;;;;;4.18;2.95;;;16.50;99.90;;;;;;5072082;28;20547;-57
2022/08/03 03:07:37;;;;;;;5.60;3.67;;;16.50;99.90;;;;;;5073105;28;20104;-56
2022/08/03 03:10:20;;;;;;;3.42;3.13;;;16.50;99.90;;;;;;5059648;28;20846;-59
2022/08/03 03:12:51;;;;;;;5.05;3.47;;;16.50;99.90;;;;;;5054866;28;20052;-58
2022/08/03 03:15:18;;;;;;;7.00;3.60;;;16.40;99.90;;;;;;5057032;28;20706;-58
2022/08/03 03:17:46;;;;;;;4.40;3.28;;;16.40;99.90;;;;;;5057318;28;20048;-58
2022/08/03 03:20:14;;;;;;;3.97;3.40;;;16.40;99.90;;;;;;5057301;28;20604;-58
2022/08/03 03:22:59;;;;;;;3.20;2.90;;;16.30;99.90;;;;;;5040671;28;20544;-57
2022/08/03 03:25:27;;;;;;;5.75;3.40;;;16.40;99.90;;;;;;5038275;28;20123;-56
2022/08/03 03:27:54;;;;;;;4.07;3.50;;;16.30;99.90;;;;;;5056437;28;20506;-57
2022/08/03 03:30:24;;;;;;;3.42;3.13;;;16.30;99.90;;;;;;5039356;28;20044;-60
2022/08/03 03:32:52;;;;;;;3.95;2.67;;;16.30;99.90;;;;;;5056385;28;20066;-58
2022/08/03 03:35:19;;;;;;;3.20;2.90;;;16.30;99.90;;;;;;5057084;28;20037;-57
2022/08/03 03:37:46;;;;;;;3.60;3.20;;;16.30;99.90;;;;;;5057060;28;20508;-58
2022/08/03 03:40:13;;;;;;;;;;;16.30;99.90;;;;;;5057514;28;20045;-57
2022/08/03 03:42:40;;;;;;;3.42;2.78;;;16.30;99.90;;;;;;5056757;28;20459;-58
2022/08/03 03:45:08;;;;;;;4.18;3.40;;;16.30;99.90;;;;;;5055996;28;20045;-57
2022/08/03 03:47:35;;;;;;;4.60;3.35;;;16.30;99.90;;;;;;5056794;28;20064;-58
2022/08/03 03:50:04;;;;;;;3.60;3.10;;;16.20;99.90;;;;;;5038004;28;20052;-57
2022/08/03 03:52:31;;;;;;;4.47;3.42;;;16.20;99.90;;;;;;5057271;28;20307;-58
2022/08/03 03:54:59;;;;;;;4.53;3.58;;;16.20;99.90;;;;;;5073089;28;20032;-56
2022/08/03 03:57:28;;;;;;;3.13;2.83;;;16.10;99.90;;;;;;5076843;28;20078;-58
2022/08/03 03:59:55;;;;;;;7.03;3.38;;;16.10;99.90;;;;;;5076748;28;20040;-58
2022/08/03 04:02:22;;;;;;;5.97;3.65;;;16.10;99.90;;;;;;5075948;28;20094;-59
2022/08/03 04:10:58;;;;;;;4.43;3.33;;;16.00;99.90;;;;;;5070429;28;20059;-57
2022/08/03 04:13:50;;;;;;;15.60;4.28;;;16.00;99.90;;;;;;5073729;28;20443;-58
2022/08/03 04:16:21;;;;;;;3.80;2.72;;;16.00;99.90;;;;;;5056578;28;20060;-58
2022/08/03 04:19:00;;;;;;;3.80;3.40;;;16.10;99.90;;;;;;5055420;28;20036;-59
2022/08/03 04:21:30;;;;;;;3.40;2.95;;;16.10;99.90;;;;;;5056124;28;20102;-58
2022/08/03 04:24:01;;;;;;;3.90;3.10;;;16.10;99.90;;;;;;5054507;28;20484;-59
2022/08/03 04:26:31;;;;;;;5.32;3.08;;;16.10;99.90;;;;;;5055931;28;20581;-59
2022/08/03 04:28:59;;;;;;;5.35;3.00;;;16.20;99.90;;;;;;5055262;28;20041;-58
2022/08/03 04:31:28;;;;;;;5.95;3.17;;;16.20;99.90;;;;;;5055827;28;20043;-60
2022/08/03 04:33:56;;;;;;;4.45;3.50;;;16.20;99.90;;;;;;5053634;28;20048;-59
2022/08/03 04:36:26;;;;;;;5.05;2.70;;;16.20;99.90;;;;;;5055842;28;20453;-58
2022/08/03 04:39:01;;;;;;;4.00;3.42;;;16.20;99.90;;;;;;5055682;28;20045;-57
2022/08/03 04:41:30;;;;;;;3.92;2.85;;;16.30;99.90;;;;;;5053444;28;20051;-57
2022/08/03 04:43:59;;;;;;;5.90;4.05;;;16.30;99.90;;;;;;5054025;28;20173;-57
2022/08/03 04:46:30;;;;;;;6.85;2.83;;;16.30;99.90;;;;;;5037628;28;20518;-59
2022/08/03 04:48:58;;;;;;;4.30;3.60;;;16.40;99.90;;;;;;5053885;28;20066;-55
2022/08/03 04:51:25;;;;;;;3.30;3.00;;;16.50;99.90;;;;;;5052690;28;20457;-51
2022/08/03 04:53:52;;;;;;;5.25;3.33;;;16.50;99.90;;;;;;5062616;28;20052;-52
2022/08/03 04:56:19;;;;;;;;;;;16.50;99.90;;;;;;5057348;28;20048;-50
2022/08/03 04:58:45;;;;;;;7.43;4.27;;;16.60;99.90;;;;;;5075575;28;20027;-49
2022/08/03 05:01:12;;;;;;;;;;;16.60;99.90;;;;;;5073784;28;20063;-53
2022/08/03 05:03:39;;;;;;;9.43;4.05;;;16.70;99.90;;;;;;5056063;28;19927;-52
2022/08/03 05:06:06;;;;;;;;;;;16.80;99.90;;;;;;5075728;28;20044;-53
2022/08/03 05:08:37;;;;;;;6.25;3.00;;;16.80;99.90;;;;;;5057695;28;20709;-52
2022/08/03 05:11:15;;;;;;;3.78;3.25;;;16.90;99.90;;;;;;5054554;28;20044;-52
2022/08/03 05:13:42;;;;;;;5.47;3.55;;;17.00;99.90;;;;;;5074413;28;20503;-52
2022/08/03 05:16:10;;;;;;;6.38;3.00;;;17.10;99.90;;;;;;5072889;28;20055;-51
2022/08/03 05:18:37;;;;;;;3.47;3.17;;;17.10;99.90;;;;;;5074237;28;20804;-51
2022/08/03 05:21:04;;;;;;;;;;;17.10;99.90;;;;;;5075728;28;20052;-51
2022/08/03 05:23:31;;;;;;;3.83;3.53;;;17.20;99.90;;;;;;5074700;28;19924;-52
2022/08/03 05:25:57;;;;;;;4.63;3.35;;;17.20;99.90;;;;;;5074604;28;20105;-51
2022/08/03 05:28:24;;;;;;;5.75;3.72;;;17.30;99.90;;;;;;5065870;28;20059;-50
2022/08/03 05:30:51;;;;;;;;;;;17.30;99.90;;;;;;5053575;28;20130;-50
2022/08/03 05:33:18;;;;;;;4.00;3.22;;;17.40;99.90;;;;;;5064014;28;20340;-48
2022/08/03 05:35:45;;;;;;;4.57;3.40;;;17.40;99.90;;;;;;5072033;28;20052;-53
2022/08/03 05:38:28;;;;;;;10.00;4.18;;;17.50;99.90;;;;;;5072834;28;20715;-49
2022/08/03 05:41:04;;;;;;;4.38;3.83;;;17.60;99.90;;;;;;5073823;28;20044;-49
2022/08/03 05:43:53;;;;;;;4.97;3.75;;;17.70;99.90;;;;;;5054411;28;20438;-49
2022/08/03 05:46:23;;;;;;;7.57;3.70;;;17.80;99.90;;;;;;5052879;28;20041;-49
2022/08/03 05:48:50;;;;;;;4.35;3.17;;;17.90;99.90;;;;;;5067276;28;20854;-48
2022/08/03 05:51:17;;;;;;;3.75;3.35;;;18.00;99.90;;;;;;5072883;28;20059;-47
2022/08/03 05:53:44;;;;;;;5.32;3.33;;;18.10;99.90;;;;;;5065457;28;20048;-52
2022/08/03 05:56:11;;;;;;;7.05;4.03;;;18.20;99.90;;;;;;5058150;28;20040;-48
2022/08/03 05:58:43;;;;;;;4.47;3.42;;;18.30;99.90;;;;;;5074313;28;20040;-48
2022/08/03 06:01:10;;;;;;;5.30;2.88;;;18.40;99.90;;;;;;5074329;28;20794;-48
2022/08/03 06:03:37;;;;;;;3.92;3.40;;;18.60;99.90;;;;;;5073500;28;20043;-49
2022/08/03 06:06:04;;;;;;;6.05;3.30;;;18.70;99.90;;;;;;5074302;28;20048;-53
2022/08/03 06:08:31;;;;;;;4.75;3.00;;;18.80;99.90;;;;;;5072197;28;20591;-51
2022/08/03 06:10:57;;;;;;;4.50;3.78;;;18.90;99.90;;;;;;5038055;28;20117;-50
2022/08/03 06:13:24;;;;;;;3.97;3.35;;;19.00;99.90;;;;;;5054708;28;20047;-50
2022/08/03 06:15:51;;;;;;;4.95;3.22;;;19.10;99.90;;;;;;5065117;28;20067;-49
2022/08/03 06:18:18;;;;;;;5.07;3.22;;;19.20;99.90;;;;;;5054515;28;20055;-49
2022/08/03 06:20:45;;;;;;;4.07;2.92;;;19.30;99.90;;;;;;5053990;28;20044;-50
2022/08/03 06:23:15;;;;;;;4.38;3.42;;;19.30;99.90;;;;;;5052511;28;20047;-49
2022/08/03 06:25:45;;;;;;;8.68;3.55;;;19.40;99.90;;;;;;5052021;28;20102;-53
2022/08/03 06:28:15;;;;;;;4.35;3.05;;;19.50;99.90;;;;;;5054132;28;20054;-53
2022/08/03 06:31:02;;;;;;;9.32;3.88;;;19.60;99.90;;;;;;5051396;28;20052;-55
2022/08/03 06:33:32;;;;;;;5.53;3.28;;;19.70;99.90;;;;;;5053827;28;20532;-56
2022/08/03 06:36:19;;;;;;;6.83;3.10;;;19.80;99.90;;;;;;5052267;28;20111;-56
2022/08/03 06:38:46;;;;;;;5.25;2.97;;;19.90;99.90;;;;;;5054400;28;20121;-55
2022/08/03 06:41:12;;;;;;;4.00;3.60;;;19.90;99.90;;;;;;5035987;28;20490;-56
2022/08/03 06:43:39;;;;;;;8.70;3.65;;;20.00;99.90;;;;;;5051884;28;20102;-52
2022/08/03 06:46:26;;;;;;;3.70;3.27;;;20.20;99.90;;;;;;5053330;28;20063;-51
2022/08/03 06:48:55;;;;;;;4.05;2.92;;;20.30;99.90;;;;;;5039481;28;20532;-51
2022/08/03 06:51:22;;;;;;;3.95;3.22;;;20.40;99.90;;;;;;5055818;28;20036;-52
2022/08/03 06:54:09;;;;;;;3.57;3.23;;;20.50;99.90;;;;;;5067897;28;20138;-53
2022/08/03 06:56:36;;;;;;;4.90;3.33;;;20.60;99.90;;;;;;5077922;28;20824;-55
2022/08/03 06:59:03;;;;;;;5.85;2.67;;;20.70;99.90;;;;;;5059404;28;20056;-61
2022/08/03 07:01:30;;;;;;;3.50;3.03;;;20.90;99.90;;;;;;5076771;28;20035;-62
2022/08/03 07:03:57;;;;;;;4.40;3.03;;;21.00;99.90;;;;;;5077163;28;20139;-62
2022/08/03 07:06:23;;;;;;;7.15;3.38;;;21.10;99.90;;;;;;5077021;28;20040;-62
2022/08/03 07:08:50;;;;;;;6.82;3.20;;;21.20;99.90;;;;;;5076243;28;20058;-62
2022/08/03 07:11:22;;;;;;;3.40;3.08;;;21.40;99.90;;;;;;5060575;28;20039;-62
2022/08/03 07:13:49;;;;;;;6.72;3.08;;;21.50;99.90;;;;;;5075542;28;20113;-62
2022/08/03 07:16:15;;;;;;;6.65;3.60;;;21.70;99.90;;;;;;5076141;28;20097;-62
2022/08/03 07:18:43;;;;;;;5.30;3.42;;;21.80;99.90;;;;;;5077408;28;20603;-61
2022/08/03 07:21:11;;;;;;;3.70;3.33;;;21.90;99.90;;;;;;5076858;28;20671;-62
2022/08/03 07:23:38;;;;;;;3.70;3.40;;;22.10;99.90;;;;;;5076562;28;20113;-62
2022/08/03 07:26:05;;;;;;;3.53;2.80;;;22.20;99.90;;;;;;5077252;28;20039;-63
2022/08/03 07:28:31;;;;;;;5.40;2.90;;;22.40;99.90;;;;;;5076395;28;20542;-62
2022/08/03 07:30:58;;;;;;;5.63;3.25;;;22.50;99.90;;;;;;5076634;28;20032;-62
2022/08/03 07:33:25;;;;;;;5.88;3.10;;;22.60;99.90;;;;;;5074982;28;20690;-63
2022/08/03 07:35:52;;;;;;;7.03;3.15;;;22.80;99.90;;;;;;5077244;28;20076;-65
2022/08/03 07:38:19;;;;;;;3.28;2.97;;;22.90;99.90;;;;;;5075978;28;20048;-61
2022/08/03 07:40:47;;;;;;;5.70;3.20;;;23.00;99.90;;;;;;5075392;28;20113;-62
2022/08/03 07:43:14;;;;;;;4.07;3.20;;;23.10;99.90;;;;;;5058436;28;20293;-65
2022/08/03 07:45:40;;;;;;;5.22;3.80;;;23.20;99.90;;;;;;5053020;28;20109;-65
2022/08/03 07:48:07;;;;;;;6.63;3.35;;;23.30;99.90;;;;;;5077724;28;20527;-65
2022/08/03 07:50:38;;;;;;;3.50;3.20;;;23.40;99.90;;;;;;5077121;28;20075;-65
2022/08/03 07:53:05;;;;;;;3.88;2.97;;;23.60;99.90;;;;;;5074002;28;20195;-66
2022/08/03 07:55:32;;;;;;;6.00;3.22;;;23.70;99.90;;;;;;5056461;28;20393;-65
2022/08/03 07:58:16;;;;;;;6.90;3.70;;;23.80;99.90;;;;;;5039175;28;20050;-65
2022/08/03 08:00:51;;;;;;;3.75;3.38;;;23.90;99.90;;;;;;5056158;28;20041;-65
2022/08/03 08:03:20;;;;;;;5.10;3.72;;;24.00;99.90;;;;;;5056145;28;20086;-64
2022/08/03 08:05:48;;;;;;;5.05;3.38;;;24.10;99.90;;;;;;5056395;28;20511;-63
2022/08/03 08:08:15;;;;;;;5.38;3.72;;;24.30;99.90;;;;;;5057116;28;20055;-62
2022/08/03 08:10:41;;;;;;;3.42;3.13;;;24.60;99.90;;;;;;5070139;28;20036;-61
2022/08/03 08:13:24;;;;;;;5.65;2.97;;;25.20;99.90;;;;;;5058962;28;20029;-61
2022/08/03 08:15:50;;;;;;;5.10;4.25;;;25.80;99.90;;;;;;5075845;28;20101;-61
2022/08/03 08:18:17;;;;;;;5.93;3.25;;;26.40;99.90;;;;;;5055938;28;20053;-62
2022/08/03 08:20:44;;;;;;;5.10;3.70;;;26.90;99.90;;;;;;5056814;28;20044;-64
2022/08/03 08:23:11;;;;;;;4.10;3.67;;;27.40;99.90;;;;;;5055902;28;20071;-65
2022/08/03 08:25:58;;;;;;;8.90;3.73;;;27.80;97.20;;;;;;5055903;28;20063;-65
2022/08/03 08:28:25;;;;;;;12.13;3.35;;;28.00;89.90;;;;;;5055824;28;20442;-62
2022/08/03 08:31:00;;;;;;;5.80;3.05;;;28.30;89.60;;;;;;5055309;28;20040;-62
2022/08/03 08:33:27;;;;;;;3.70;3.28;;;28.50;91.20;;;;;;5055097;28;20503;-62
2022/08/03 08:36:08;;;;;;;4.05;3.38;;;28.90;89.50;;;;;;5055732;28;20139;-62
2022/08/03 08:38:41;;;;;;;5.63;3.33;;;29.00;77.60;;;;;;5055705;28;20044;-62
2022/08/03 08:41:10;;;;;;;2.83;2.53;;;29.00;75.30;;;;;;5054921;28;20037;-63
2022/08/03 08:43:37;;;;;;;8.93;3.22;;;29.10;75.20;;;;;;5055326;28;20064;-62
2022/08/03 08:46:07;;;;;;;6.97;3.05;;;29.30;77.60;;;;;;5055013;28;20041;-62
2022/08/03 08:48:39;;;;;;;4.70;3.53;;;29.50;76.10;;;;;;5055122;28;20117;-63
2022/08/03 08:51:07;;;;;;;4.63;3.22;;;29.70;75.30;;;;;;5054542;28;20051;-62
2022/08/03 08:53:36;;;;;;;3.42;3.13;;;29.70;74.30;;;;;;5061224;28;20048;-62
2022/08/03 08:56:04;;;;;;;3.60;3.30;;;29.70;74.50;;;;;;5073792;28;20304;-62
2022/08/03 08:58:40;;;;;;;4.82;3.00;;;29.80;75.80;;;;;;5075549;28;20052;-62
2022/08/03 09:01:07;;;;;;;7.13;3.00;;;30.00;75.00;;;;;;5075042;28;20844;-63
2022/08/03 09:03:35;;;;;;;5.40;3.10;;;30.10;74.60;;;;;;5073133;28;20082;-62
2022/08/03 09:06:03;;;;;;;10.55;3.47;;;30.20;71.20;;;;;;5075072;28;20036;-61
2022/08/03 09:08:31;;;;;;;10.18;3.70;;;30.30;66.80;;;;;;5074336;28;20048;-63
2022/08/03 09:10:58;;;;;;;3.28;3.00;;;30.30;75.70;;;;;;5058481;28;20049;-64
2022/08/03 09:13:26;;;;;;;9.38;3.17;;;30.40;72.10;;;;;;5039051;28;20101;-61
2022/08/03 09:16:13;;;;;;;10.18;3.25;;;30.40;71.70;;;;;;5072871;28;20117;-64
2022/08/03 09:18:42;;;;;;;3.75;3.38;;;30.50;76.50;;;;;;5068785;28;20102;-63
2022/08/03 09:21:19;;;;;;;6.03;3.30;;;30.60;76.60;;;;;;5055016;28;20045;-64
2022/08/03 09:24:03;;;;;;;13.80;3.22;;;30.80;76.50;;;;;;5056172;28;20040;-64
2022/08/03 09:26:35;;;;;;;5.60;3.45;;;30.80;72.80;;;;;;5074968;28;20097;-64
2022/08/03 09:29:09;;;;;;;6.88;3.22;;;30.80;71.20;;;;;;5068427;28;20041;-64
2022/08/03 09:31:45;;;;;;;13.23;3.53;;;30.80;69.10;;;;;;5061854;28;20788;-64
2022/08/03 09:34:17;;;;;;;6.30;4.13;;;30.90;66.90;;;;;;5053127;28;20052;-64
2022/08/03 09:36:45;;;;;;;7.18;3.30;;;30.90;71.50;;;;;;5066789;28;20419;-62
2022/08/03 09:39:18;;;;;;;6.88;3.28;;;31.10;72.70;;;;;;5075141;28;20066;-63
2022/08/03 09:42:05;;;;;;;5.22;3.65;;;31.20;71.80;;;;;;5073823;28;20056;-66
2022/08/03 09:44:41;;;;;;;5.15;3.53;;;31.40;73.10;;;;;;5074379;28;20044;-62
2022/08/03 09:47:09;;;;;;;8.80;3.20;;;31.50;66.90;;;;;;5072379;28;20040;-65
2022/08/03 09:49:38;;;;;;;6.68;3.55;;;31.50;66.20;;;;;;5072623;28;20071;-64
2022/08/03 09:52:21;;;;;;;5.28;3.38;;;31.50;65.80;;;;;;5073670;28;20059;-65
2022/08/03 09:55:13;;;;;;;7.57;5.10;;;31.50;67.50;;;;;;5054561;28;20123;-64
2022/08/03 09:58:08;;;;;;;7.53;3.53;;;31.60;69.40;;;;;;5053916;28;20120;-65
2022/08/03 10:00:52;;;;;;;9.80;4.07;;;31.70;70.30;;;;;;5054137;28;20149;-65
2022/08/03 10:03:20;;;;;;;6.68;3.30;;;31.90;73.80;;;;;;5052276;28;20048;-66
2022/08/03 10:05:47;;;;;;;11.20;3.47;;;32.00;69.90;;;;;;5052581;28;20429;-65
2022/08/03 10:08:15;;;;;;;3.75;3.45;;;32.10;68.70;;;;;;5054371;28;20059;-65
2022/08/03 10:10:44;;;;;;;4.53;4.03;;;32.30;69.20;;;;;;5067615;28;20088;-65
2022/08/03 10:13:13;;;;;;;4.95;3.63;;;32.40;69.60;;;;;;5055524;28;20118;-65
2022/08/03 10:15:40;;;;;;;6.38;3.80;;;32.40;71.90;;;;;;5067110;28;20044;-65
2022/08/03 10:18:27;;;;;;;4.47;3.10;;;32.50;65.30;;;;;;5065166;28;20055;-65
2022/08/03 10:21:02;;;;;;;3.45;3.08;;;32.50;66.70;;;;;;5073463;28;20055;-65
2022/08/03 10:23:36;;;;;;;5.57;3.13;;;32.60;69.30;;;;;;5078802;28;20040;-64
2022/08/03 10:26:05;;;;;;;4.55;3.20;;;32.70;70.00;;;;;;5077300;28;20063;-65
2022/08/03 10:28:44;;;;;;;4.03;3.60;;;32.90;68.70;;;;;;5078651;28;20040;-65
2022/08/03 10:31:12;;;;;;;5.28;3.30;;;33.00;66.20;;;;;;5077642;28;20047;-65
2022/08/03 10:33:46;;;;;;;10.98;3.90;;;33.00;67.80;;;;;;5078193;28;20040;-63
2022/08/03 10:36:22;;;;;;;4.03;3.33;;;33.00;64.60;;;;;;5068679;28;20064;-64
2022/08/03 10:38:51;;;;;;;4.03;3.13;;;33.00;64.50;;;;;;5057917;28;20498;-64
2022/08/03 10:41:22;;;;;;;3.28;2.97;;;33.00;63.00;;;;;;5061568;28;20043;-65
2022/08/03 10:44:12;;;;;;;3.53;3.00;;;33.00;63.10;;;;;;5076699;28;20040;-66
2022/08/03 10:46:40;;;;;;;3.75;3.35;;;33.00;63.60;;;;;;5078129;28;20762;-65
2022/08/03 10:49:17;;;;;;;9.25;3.03;;;33.00;62.40;;;;;;5077841;28;20155;-65
2022/08/03 10:52:02;;;;;;;5.85;2.78;;;33.00;63.90;;;;;;5077836;28;20040;-65
2022/08/03 10:57:47;;;;;;;;;;;33.10;59.90;;;;;;5058585;28;20040;-65
2022/08/03 11:00:20;;;;;;;5.00;3.15;;;33.10;60.90;;;;;;5057211;28;19924;-64
2022/08/03 11:03:07;;;;;;;2.92;2.60;;;33.20;61.20;;;;;;5057381;28;20076;-65
2022/08/03 11:05:45;;;;;;;3.47;3.17;;;33.30;62.40;;;;;;5056667;28;20120;-65
2022/08/03 11:08:30;;;;;;;3.58;2.97;;;33.30;59.40;;;;;;5057757;28;20045;-66
2022/08/03 11:11:27;;;;;;;2.97;2.60;;;33.30;60.40;;;;;;5054049;28;20055;-66
2022/08/03 11:13:57;;;;;;;3.13;2.83;;;33.40;61.00;;;;;;5059009;28;20052;-64
2022/08/03 11:16:26;;;;;;;8.23;2.63;;;33.40;59.10;;;;;;5075980;28;20090;-63
2022/08/03 11:18:57;;;;;;;3.47;2.33;;;33.40;58.60;;;;;;5065022;28;20048;-64
2022/08/03 11:21:49;;;;;;;4.00;2.88;;;33.40;58.10;;;;;;5055236;28;20090;-65
2022/08/03 11:24:35;;;;;;;5.18;2.50;;;33.50;56.40;;;;;;5055827;28;20504;-64
2022/08/03 11:27:21;;;;;;;3.30;2.92;;;33.50;56.50;;;;;;5056492;28;20044;-64
2022/08/03 11:30:00;;;;;;;5.90;2.50;;;33.50;56.30;;;;;;5057026;28;20044;-65
2022/08/03 11:32:36;;;;;;;3.55;2.38;;;33.60;55.10;;;;;;5055819;28;20453;-65
2022/08/03 11:35:25;;;;;;;3.22;2.40;;;33.70;55.00;;;;;;5057086;28;20040;-64
2022/08/03 11:38:00;;;;;;;4.32;2.45;;;33.80;53.50;;;;;;5073664;28;20081;-65
2022/08/03 11:40:53;;;;;;;3.10;2.45;;;33.80;52.30;;;;;;5076984;28;20120;-63
2022/08/03 11:43:29;;;;;;;2.45;2.25;;;33.80;52.90;;;;;;5075210;28;20048;-66
2022/08/03 11:46:12;;;;;;;2.65;2.38;;;33.80;53.60;;;;;;5076886;28;20698;-66
2022/08/03 11:49:04;;;;;;;4.70;2.67;;;34.00;52.50;;;;;;5074980;28;20044;-67
2022/08/03 11:51:38;;;;;;;4.82;3.47;;;34.00;52.30;;;;;;5075621;28;20098;-66
2022/08/03 11:54:06;;;;;;;6.00;2.88;;;34.00;51.60;;;;;;5065643;28;20641;-68
2022/08/03 11:56:46;;;;;;;3.22;2.53;;;33.90;53.10;;;;;;5055817;28;20040;-66
2022/08/03 11:59:13;;;;;;;4.13;2.88;;;33.90;52.30;;;;;;5056280;28;20063;-64
2022/08/03 12:01:47;;;;;;;2.65;2.42;;;33.90;52.20;;;;;;5055226;28;20058;-65
2022/08/03 12:04:15;;;;;;;2.85;2.60;;;33.90;52.80;;;;;;5056284;28;20122;-64
2022/08/03 12:06:57;;;;;;;6.45;2.50;;;34.00;52.00;;;;;;5037639;28;20068;-63
2022/08/03 12:09:24;;;;;;;2.45;2.25;;;34.00;51.30;;;;;;5059299;28;20063;-67
2022/08/03 12:11:52;;;;;;;2.20;2.00;;;34.10;51.90;;;;;;5068242;28;20033;-63
2022/08/03 12:14:30;;;;;;;7.57;2.63;;;34.20;50.70;;;;;;5055988;28;20052;-64
2022/08/03 12:17:17;;;;;;;4.88;2.53;;;34.10;51.00;;;;;;5066203;28;20047;-66
2022/08/03 12:19:45;;;;;;;5.95;2.50;;;34.20;51.00;;;;;;5054523;28;20040;-65
2022/08/03 12:22:12;;;;;;;5.63;2.10;;;34.20;51.00;;;;;;5058711;28;20041;-65
2022/08/03 12:24:43;;;;;;;4.25;2.30;;;34.20;51.80;;;;;;5057448;28;20455;-65
2022/08/03 12:27:22;;;;;;;2.53;2.33;;;34.30;51.70;;;;;;5076331;28;20127;-63
2022/08/03 12:29:53;;;;;;;3.60;2.30;;;34.30;49.80;;;;;;5075644;28;20048;-63
2022/08/03 12:32:26;;;;;;;2.50;2.30;;;34.40;49.30;;;;;;5057342;28;20044;-62
2022/08/03 12:34:54;;;;;;;4.50;2.83;;;34.40;50.10;;;;;;5056393;28;20508;-62
2022/08/03 12:37:22;;;;;;;6.15;2.15;;;34.50;49.50;;;;;;5037185;28;20044;-63
2022/08/03 12:39:51;;;;;;;6.70;2.25;;;34.40;47.80;;;;;;5053253;28;20676;-63
2022/08/03 12:42:33;;;;;;;3.35;2.67;;;34.40;48.00;;;;;;5055144;28;20048;-63
2022/08/03 12:45:21;;;;;;;6.22;2.20;;;34.40;48.60;;;;;;5053890;28;20041;-63
2022/08/03 12:48:08;;;;;;;;;;;34.40;47.80;;;;;;5039119;28;20041;-62
2022/08/03 12:50:36;;;;;;;2.92;2.20;;;34.40;46.70;;;;;;5054645;28;19924;-62
2022/08/03 12:53:05;;;;;;;5.30;2.33;;;34.50;48.00;;;;;;5022153;28;20052;-62
2022/08/03 12:55:37;;;;;;;2.65;2.08;;;34.50;47.30;;;;;;5075413;28;20106;-62
2022/08/03 12:58:35;;;;;;;2.30;2.10;;;34.50;47.70;;;;;;5075787;28;20105;-63
2022/08/03 13:01:04;;;;;;;5.63;2.50;;;34.40;46.70;;;;;;5075218;28;20146;-62
2022/08/03 13:03:45;;;;;;;2.22;1.98;;;34.40;47.10;;;;;;5057237;28;20050;-62
2022/08/03 13:06:26;;;;;;;2.80;2.40;;;34.40;47.60;;;;;;5075498;28;20040;-62
2022/08/03 13:09:05;;;;;;;2.20;2.00;;;34.50;47.70;;;;;;5056483;28;20044;-62
2022/08/03 13:11:32;;;;;;;1.65;1.55;;;34.50;46.60;;;;;;5054792;28;20664;-63
2022/08/03 13:14:19;;;;;;;2.30;2.00;;;34.60;45.30;;;;;;5054058;28;20036;-62
2022/08/03 13:16:53;;;;;;;2.83;2.30;;;34.60;46.70;;;;;;5112985;27;20965;-62
2022/08/03 13:19:19;;;;;;;3.17;2.10;;;34.50;46.70;;;;;;5072456;28;20848;-61
2022/08/03 13:21:47;;;;;;;2.05;1.95;;;34.60;46.20;;;;;;5092472;28;20116;-62
2022/08/03 13:24:31;;;;;;;2.60;2.10;;;34.60;45.70;;;;;;5091597;28;20498;-62
2022/08/03 13:26:59;;;;;;;2.97;2.25;;;34.60;45.70;;;;;;5092263;28;20036;-62